Time;durP1;ratioP1;P1;durP2;ratioP2;P2;SDS_P1;SDS_P2;PMS_P1;PMS_P2;Temp;Humidity;BMP_temperature;BMP_pressure;BME280_temperature;BME280_humidity;BME280_pressure;Samples;Min_cycle;Max_cycle;Signal;HPM_P1;HPM_P2
2023/09/23 00:00:49;;;;;;;4.80;3.55;;;;;;;12.75;100.00;100669.16;5060175;28;20024;-58
2023/09/23 00:03:15;;;;;;;8.52;4.65;;;;;;;12.69;100.00;100678.25;5034373;28;20021;-58
2023/09/23 00:05:40;;;;;;;6.30;4.65;;;;;;;12.66;100.00;100678.38;5050950;28;20032;-59
2023/09/23 00:08:08;;;;;;;3.72;3.03;;;;;;;12.71;100.00;100667.59;5055518;28;20081;-58
2023/09/23 00:10:34;;;;;;;3.63;2.20;;;;;;;12.70;100.00;100673.81;5069892;28;20097;-59
2023/09/23 00:13:00;;;;;;;3.10;1.92;;;;;;;12.71;100.00;100663.19;5069515;28;20044;-58
2023/09/23 00:15:25;;;;;;;3.58;2.08;;;;;;;12.66;100.00;100657.22;5055568;28;20053;-58
2023/09/23 00:17:53;;;;;;;5.53;1.88;;;;;;;12.57;100.00;100653.22;5050587;28;20060;-58
2023/09/23 00:20:19;;;;;;;2.45;1.85;;;;;;;12.54;100.00;100656.00;5050339;28;20113;-59
2023/09/23 00:22:45;;;;;;;4.35;1.60;;;;;;;12.50;100.00;100657.06;5059143;28;20108;-61
2023/09/23 00:25:13;;;;;;;2.63;1.67;;;;;;;12.40;100.00;100653.13;5069885;28;20103;-58
2023/09/23 00:27:39;;;;;;;4.20;1.52;;;;;;;12.31;100.00;100657.88;5069961;28;20020;-57
2023/09/23 00:30:05;;;;;;;1.67;1.58;;;;;;;12.28;100.00;100654.53;5062490;28;20029;-59
2023/09/23 00:32:32;;;;;;;3.08;2.17;;;;;;;12.22;100.00;100659.13;5069967;28;20506;-58
2023/09/23 00:34:59;;;;;;;3.28;2.08;;;;;;;12.12;100.00;100661.34;5068019;28;20043;-57
2023/09/23 00:37:24;;;;;;;3.92;1.70;;;;;;;12.03;100.00;100653.78;5044952;28;20519;-58
2023/09/23 00:39:50;;;;;;;2.55;2.28;;;;;;;11.97;100.00;100667.22;5048980;28;20025;-58
2023/09/23 00:42:20;;;;;;;2.80;2.50;;;;;;;11.94;100.00;100672.63;5048464;28;20119;-60
2023/09/23 00:44:45;;;;;;;6.15;4.10;;;;;;;11.98;100.00;100676.91;5054313;28;20021;-59
2023/09/23 00:47:13;;;;;;;11.77;8.43;;;;;;;12.01;100.00;100684.66;5048892;28;20021;-59
2023/09/23 00:49:40;;;;;;;15.48;11.50;;;;;;;12.00;100.00;100683.81;5050899;28;20031;-59
2023/09/23 00:52:06;;;;;;;16.55;12.50;;;;;;;12.03;100.00;100685.47;5069130;28;20021;-58
2023/09/23 00:54:41;;;;;;;20.25;14.45;;;;;;;12.11;100.00;100691.31;5049904;28;20025;-59
2023/09/23 00:57:07;;;;;;;26.02;17.92;;;;;;;12.17;100.00;100687.56;5048412;28;20033;-58
2023/09/23 00:59:36;;;;;;;23.98;17.75;;;;;;;12.21;100.00;100696.19;5068499;28;20030;-59
2023/09/23 01:02:05;;;;;;;24.27;18.83;;;;;;;12.23;100.00;100702.28;5068301;28;20022;-59
2023/09/23 01:04:30;;;;;;;26.80;18.10;;;;;;;12.26;100.00;100705.63;5129030;22;20040;-63
2023/09/23 01:06:56;;;;;;;27.40;19.65;;;;;;;12.26;100.00;100710.06;5066676;28;20024;-65
2023/09/23 01:09:22;;;;;;;28.33;19.30;;;;;;;12.30;100.00;100719.56;5067721;28;20102;-64
2023/09/23 01:11:50;;;;;;;26.98;18.50;;;;;;;12.36;100.00;100711.38;5065152;28;20459;-64
2023/09/23 01:14:21;;;;;;;24.20;18.40;;;;;;;12.38;100.00;100717.44;5068657;28;20028;-64
2023/09/23 01:16:46;;;;;;;26.13;19.10;;;;;;;12.45;100.00;100727.75;5067590;28;20020;-65
2023/09/23 01:19:16;;;;;;;23.55;18.25;;;;;;;12.45;100.00;100725.09;5065306;28;20032;-64
2023/09/23 01:21:41;;;;;;;28.27;19.50;;;;;;;12.42;100.00;100722.59;5068871;28;20021;-61
2023/09/23 01:24:07;;;;;;;28.70;18.10;;;;;;;12.47;100.00;100724.13;5066799;28;20028;-65
2023/09/23 01:26:34;;;;;;;30.17;18.08;;;;;;;12.46;100.00;100717.13;5064131;28;20044;-63
2023/09/23 01:29:00;;;;;;;24.25;18.77;;;;;;;12.50;100.00;100721.34;5067952;28;20028;-63
2023/09/23 01:31:29;;;;;;;32.03;19.85;;;;;;;12.48;100.00;100709.13;5067347;28;20024;-64
2023/09/23 01:33:55;;;;;;;28.92;18.48;;;;;;;12.46;100.00;100711.84;5063823;28;20048;-63
2023/09/23 01:36:21;;;;;;;28.20;18.98;;;;;;;12.43;100.00;100706.69;5067430;28;20725;-63
2023/09/23 01:38:48;;;;;;;29.30;18.42;;;;;;;12.44;100.00;100712.84;5065380;28;20108;-63
2023/09/23 01:41:15;;;;;;;27.45;18.50;;;;;;;12.39;100.00;100715.66;5065236;28;20024;-64
2023/09/23 01:43:40;;;;;;;28.83;18.45;;;;;;;12.43;100.00;100716.41;5068427;28;20047;-64
2023/09/23 01:46:07;;;;;;;35.00;18.40;;;;;;;12.41;100.00;100719.13;5064764;28;20139;-63
2023/09/23 01:48:32;;;;;;;24.92;17.77;;;;;;;12.37;100.00;100714.88;5066785;28;20032;-63
2023/09/23 01:51:01;;;;;;;27.52;17.60;;;;;;;12.37;100.00;100717.50;5066644;28;20028;-63
2023/09/23 01:53:27;;;;;;;22.42;16.48;;;;;;;12.36;100.00;100711.38;5064744;28;20024;-64
2023/09/23 01:55:53;;;;;;;23.80;16.25;;;;;;;12.42;100.00;100710.25;5065873;28;20032;-63
2023/09/23 01:58:22;;;;;;;21.58;15.93;;;;;;;12.48;100.00;100720.56;5065993;28;20063;-63
2023/09/23 02:00:47;;;;;;;25.60;15.73;;;;;;;12.55;100.00;100722.94;5064211;28;20398;-64
2023/09/23 02:03:14;;;;;;;24.08;14.95;;;;;;;12.57;100.00;100724.59;5067385;28;20024;-63
2023/09/23 02:05:39;;;;;;;23.98;14.95;;;;;;;12.53;100.00;100720.38;5067007;28;20041;-63
2023/09/23 02:08:05;;;;;;;22.90;14.20;;;;;;;12.55;100.00;100731.72;5059961;28;20716;-63
2023/09/23 02:10:30;;;;;;;19.27;13.32;;;;;;;12.56;100.00;100736.09;5066473;28;20024;-62
2023/09/23 02:12:57;;;;;;;23.77;12.60;;;;;;;12.54;100.00;100737.94;5048481;28;20063;-63
2023/09/23 02:15:23;;;;;;;19.48;12.52;;;;;;;12.62;100.00;100738.44;5064312;28;20056;-64
2023/09/23 02:17:49;;;;;;;15.60;12.07;;;;;;;12.61;100.00;100738.50;5066728;28;20710;-64
2023/09/23 02:20:19;;;;;;;17.25;11.45;;;;;;;12.62;100.00;100737.59;5066752;28;20035;-64
2023/09/23 02:22:55;;;;;;;18.27;9.32;;;;;;;12.64;100.00;100736.59;5063890;28;20029;-63
2023/09/23 02:25:24;;;;;;;13.82;9.25;;;;;;;12.63;100.00;100736.66;5066827;28;20029;-62
2023/09/23 02:27:51;;;;;;;12.10;8.70;;;;;;;12.53;100.00;100744.16;5066476;28;20102;-64
2023/09/23 02:30:16;;;;;;;8.27;6.32;;;;;;;12.48;100.00;100740.84;5047293;28;20094;-63
2023/09/23 02:32:43;;;;;;;9.25;5.70;;;;;;;12.41;100.00;100745.53;5049455;28;20483;-63
2023/09/23 02:35:12;;;;;;;9.70;5.18;;;;;;;12.34;100.00;100744.94;5066868;28;20074;-64
2023/09/23 02:37:45;;;;;;;9.05;5.35;;;;;;;12.30;100.00;100756.56;5063644;28;20025;-63
2023/09/23 02:40:12;;;;;;;9.48;5.90;;;;;;;12.25;100.00;100762.03;5066284;28;20032;-63
2023/09/23 02:42:42;;;;;;;12.23;5.22;;;;;;;12.18;100.00;100755.31;5063675;28;20020;-65
2023/09/23 02:45:09;;;;;;;7.80;5.40;;;;;;;12.15;100.00;100763.34;5050612;28;20627;-62
2023/09/23 02:47:36;;;;;;;10.32;5.10;;;;;;;12.12;100.00;100760.84;5047178;28;20734;-64
2023/09/23 02:50:02;;;;;;;10.00;5.80;;;;;;;12.10;100.00;100758.25;5047299;28;20036;-63
2023/09/23 02:52:27;;;;;;;9.18;5.97;;;;;;;12.12;100.00;100755.56;5065925;28;20021;-63
2023/09/23 02:54:54;;;;;;;12.35;5.60;;;;;;;12.15;100.00;100759.84;5065743;28;20096;-64
2023/09/23 02:57:19;;;;;;;8.63;5.38;;;;;;;12.12;100.00;100760.84;5063155;28;20040;-64
2023/09/23 02:59:48;;;;;;;9.43;6.07;;;;;;;12.09;100.00;100766.25;5065863;28;20040;-63
2023/09/23 03:02:20;;;;;;;8.45;5.25;;;;;;;12.08;100.00;100770.69;5065668;28;20028;-64
2023/09/23 03:04:45;;;;;;;7.85;5.22;;;;;;;12.04;100.00;100761.13;5062784;28;20102;-65
2023/09/23 03:07:11;;;;;;;7.72;5.30;;;;;;;12.07;100.00;100762.81;5067059;28;20521;-65
2023/09/23 03:09:43;;;;;;;11.90;5.45;;;;;;;12.04;100.00;100762.91;5065062;28;20071;-63
2023/09/23 03:12:09;;;;;;;10.27;4.95;;;;;;;12.10;100.00;100767.97;5061691;28;20110;-66
2023/09/23 03:14:40;;;;;;;9.13;5.60;;;;;;;12.11;100.00;100774.97;5066708;28;20108;-67
2023/09/23 03:17:07;;;;;;;9.32;4.78;;;;;;;12.13;100.00;100775.75;5065854;28;20020;-65
2023/09/23 03:19:33;;;;;;;9.07;4.72;;;;;;;12.19;100.00;100774.66;5063822;28;20028;-64
2023/09/23 03:21:59;;;;;;;7.78;5.20;;;;;;;12.22;100.00;100782.47;5066587;28;20024;-63
2023/09/23 03:24:26;;;;;;;10.25;5.40;;;;;;;12.25;100.00;100782.31;5064533;28;20048;-64
2023/09/23 03:26:58;;;;;;;14.25;5.88;;;;;;;12.36;100.00;100797.72;5051134;28;20082;-64
2023/09/23 03:29:32;;;;;;;10.25;6.30;;;;;;;12.42;100.00;100796.59;5067527;28;20024;-66
2023/09/23 03:31:58;;;;;;;13.20;6.63;;;;;;;12.48;100.00;100805.13;5062265;28;20028;-64
2023/09/23 03:34:25;;;;;;;10.30;5.82;;;;;;;12.51;100.00;100801.50;5066462;28;20855;-64
2023/09/23 03:36:54;;;;;;;10.32;5.43;;;;;;;12.56;100.00;100806.59;5070038;28;20116;-65
2023/09/23 03:39:20;;;;;;;10.43;5.40;;;;;;;12.64;100.00;100815.03;5066533;28;20055;-63
2023/09/23 03:41:46;;;;;;;7.68;5.70;;;;;;;12.64;100.00;100820.31;5051424;28;20025;-64
2023/09/23 03:44:14;;;;;;;12.68;6.20;;;;;;;12.71;100.00;100820.94;5069685;28;20020;-64
2023/09/23 03:46:40;;;;;;;10.50;5.65;;;;;;;12.80;100.00;100820.53;5066700;28;20029;-65
2023/09/23 03:49:06;;;;;;;10.35;5.38;;;;;;;12.84;100.00;100819.47;5069762;28;20459;-64
2023/09/23 03:51:31;;;;;;;12.13;6.22;;;;;;;12.76;100.00;100814.50;5067704;28;20199;-64
2023/09/23 03:53:56;;;;;;;12.05;6.03;;;;;;;12.80;100.00;100814.38;5064347;28;20352;-65
2023/09/23 03:56:24;;;;;;;13.18;6.40;;;;;;;12.77;100.00;100820.66;5068868;28;20029;-63
2023/09/23 03:58:51;;;;;;;13.35;7.28;;;;;;;12.70;100.00;100817.41;5064485;28;20543;-63
2023/09/23 04:01:16;;;;;;;13.00;7.55;;;;;;;12.62;100.00;100816.91;5070185;28;20077;-68
2023/09/23 04:03:42;;;;;;;15.20;7.53;;;;;;;12.57;100.00;100814.44;5066997;28;20032;-65
2023/09/23 04:06:08;;;;;;;16.65;8.20;;;;;;;12.55;100.00;100823.38;5069350;28;20028;-66
2023/09/23 04:08:34;;;;;;;14.23;9.00;;;;;;;12.56;100.00;100818.03;5069286;28;20027;-65
2023/09/23 04:11:05;;;;;;;16.88;8.30;;;;;;;12.55;100.00;100826.84;5064912;28;20082;-64
2023/09/23 04:13:31;;;;;;;13.80;9.10;;;;;;;12.58;100.00;100829.38;5069453;28;20081;-65
2023/09/23 04:16:00;;;;;;;12.52;8.68;;;;;;;12.57;100.00;100834.72;5067159;28;20404;-65
2023/09/23 04:18:26;;;;;;;18.85;8.70;;;;;;;12.54;100.00;100830.44;5067375;28;20374;-63
2023/09/23 04:20:53;;;;;;;16.75;8.93;;;;;;;12.48;100.00;100834.19;5068638;28;20024;-64
2023/09/23 04:23:18;;;;;;;14.60;8.32;;;;;;;12.48;100.00;100835.97;5057086;28;20039;-64
2023/09/23 04:25:44;;;;;;;16.90;8.43;;;;;;;12.40;100.00;100830.16;5048069;28;20104;-66
2023/09/23 04:28:09;;;;;;;11.73;7.82;;;;;;;12.37;100.00;100839.94;5049449;28;20033;-63
2023/09/23 04:30:35;;;;;;;15.05;8.05;;;;;;;12.30;100.00;100841.09;5065055;28;20039;-62
2023/09/23 04:33:01;;;;;;;14.55;7.75;;;;;;;12.32;100.00;100839.28;5068318;28;20024;-64
2023/09/23 04:35:26;;;;;;;12.32;6.72;;;;;;;12.30;100.00;100851.69;5065056;28;20029;-65
2023/09/23 04:37:52;;;;;;;11.45;6.85;;;;;;;12.29;100.00;100852.59;5068986;28;20044;-63
2023/09/23 04:40:18;;;;;;;11.65;5.97;;;;;;;12.28;100.00;100861.44;5065864;28;20028;-64
2023/09/23 04:42:43;;;;;;;11.43;5.63;;;;;;;12.22;100.00;100856.44;5067142;28;20039;-65
2023/09/23 04:45:10;;;;;;;10.30;5.20;;;;;;;12.18;100.00;100854.81;5068677;28;20025;-64
2023/09/23 04:47:40;;;;;;;9.80;4.78;;;;;;;12.15;100.00;100863.72;5065546;28;20040;-66
2023/09/23 04:50:07;;;;;;;10.45;5.47;;;;;;;12.19;100.00;100867.13;5068150;28;20477;-64
2023/09/23 04:52:32;;;;;;;9.80;5.35;;;;;;;12.16;100.00;100877.78;5066015;28;21132;-63
2023/09/23 04:54:58;;;;;;;10.13;5.65;;;;;;;12.16;100.00;100872.50;5049855;28;20031;-64
2023/09/23 04:57:23;;;;;;;10.90;5.78;;;;;;;12.15;100.00;100878.69;5067932;28;20021;-65
2023/09/23 04:59:49;;;;;;;9.05;5.55;;;;;;;12.11;100.00;100878.84;5065248;28;20052;-64
2023/09/23 05:02:17;;;;;;;9.02;5.85;;;;;;;12.13;100.00;100881.41;5069351;28;20025;-64
2023/09/23 05:04:46;;;;;;;8.47;5.50;;;;;;;12.11;100.00;100886.78;5068041;28;20060;-65
2023/09/23 05:07:12;;;;;;;10.15;6.03;;;;;;;12.12;100.00;100887.63;5065725;28;20027;-65
2023/09/23 05:09:39;;;;;;;10.38;5.97;;;;;;;12.10;100.00;100879.75;5068066;28;20557;-65
2023/09/23 05:12:04;;;;;;;18.30;6.53;;;;;;;12.11;100.00;100892.06;5068179;28;20111;-67
2023/09/23 05:14:30;;;;;;;11.90;6.72;;;;;;;12.09;100.00;100896.53;5065221;28;20250;-65
2023/09/23 05:16:58;;;;;;;14.30;6.72;;;;;;;12.09;100.00;100899.16;5068212;28;20028;-64
2023/09/23 05:19:24;;;;;;;13.07;7.38;;;;;;;12.13;100.00;100916.59;5062511;28;20675;-66
2023/09/23 05:21:53;;;;;;;15.38;7.30;;;;;;;12.22;100.00;100907.47;5047195;28;20043;-64
2023/09/23 05:24:18;;;;;;;13.88;7.65;;;;;;;12.33;100.00;100914.09;5045940;28;20025;-66
2023/09/23 05:26:44;;;;;;;15.07;7.28;;;;;;;12.36;100.00;100908.69;5065777;28;20029;-65
2023/09/23 05:29:09;;;;;;;12.73;7.10;;;;;;;12.46;100.00;100915.31;5068622;28;20079;-67
2023/09/23 05:31:36;;;;;;;12.38;6.90;;;;;;;12.48;100.00;100920.53;5047384;28;20123;-65
2023/09/23 05:34:01;;;;;;;14.13;6.68;;;;;;;12.52;100.00;100922.13;5048154;28;20024;-66
2023/09/23 05:36:27;;;;;;;13.63;6.45;;;;;;;12.57;100.00;100925.47;5067928;28;20035;-65
2023/09/23 05:38:53;;;;;;;13.25;6.47;;;;;;;12.57;100.00;100935.16;5065086;28;20517;-65
2023/09/23 05:41:23;;;;;;;12.23;6.00;;;;;;;12.58;100.00;100939.56;5059285;28;20367;-65
2023/09/23 05:43:49;;;;;;;12.63;6.25;;;;;;;12.60;100.00;100941.19;5048938;28;20052;-66
2023/09/23 05:46:15;;;;;;;12.75;5.85;;;;;;;12.61;100.00;100947.31;5064898;28;20029;-65
2023/09/23 05:48:40;;;;;;;14.88;5.75;;;;;;;12.61;100.00;100949.97;5053813;28;20033;-65
2023/09/23 05:51:06;;;;;;;13.93;4.72;;;;;;;12.64;100.00;100958.66;5047223;28;20033;-66
2023/09/23 05:53:33;;;;;;;13.98;5.00;;;;;;;12.71;100.00;100953.13;5047646;28;20208;-66
2023/09/23 05:55:59;;;;;;;15.13;5.50;;;;;;;12.70;100.00;100954.03;5049476;28;20070;-66
2023/09/23 05:58:24;;;;;;;14.35;5.00;;;;;;;12.70;100.00;100956.69;5047556;28;20107;-65
2023/09/23 06:00:50;;;;;;;12.90;5.50;;;;;;;12.75;100.00;100962.63;5049464;28;20118;-66
2023/09/23 06:03:17;;;;;;;11.10;4.53;;;;;;;12.90;100.00;100969.06;5067194;28;20029;-67
2023/09/23 06:05:43;;;;;;;11.20;4.50;;;;;;;13.02;100.00;100965.06;5067128;28;20047;-67
2023/09/23 06:08:10;;;;;;;12.43;4.70;;;;;;;13.17;100.00;100973.25;5060737;28;20056;-66
2023/09/23 06:10:36;;;;;;;9.20;4.65;;;;;;;13.27;100.00;100980.75;5047566;28;20024;-65
2023/09/23 06:13:02;;;;;;;10.18;3.90;;;;;;;13.27;100.00;100985.16;5046608;28;20025;-68
2023/09/23 06:15:28;;;;;;;12.18;4.50;;;;;;;13.33;100.00;100987.53;5051402;28;20070;-66
2023/09/23 06:17:54;;;;;;;11.00;4.22;;;;;;;13.37;100.00;100983.84;5047748;28;20369;-65
2023/09/23 06:20:19;;;;;;;14.65;3.90;;;;;;;13.35;100.00;100993.66;5046814;28;20111;-66
2023/09/23 06:22:45;;;;;;;9.75;3.80;;;;;;;13.32;100.00;100996.41;5038618;28;20577;-64
2023/09/23 06:25:11;;;;;;;6.82;3.80;;;;;;;13.38;100.00;101006.75;5065138;28;20028;-64
2023/09/23 06:27:36;;;;;;;4.93;3.35;;;;;;;13.43;100.00;101009.19;5066244;28;20028;-64
2023/09/23 06:30:02;;;;;;;7.45;3.55;;;;;;;13.43;100.00;101014.50;5062572;28;20036;-64
2023/09/23 06:32:28;;;;;;;10.18;3.75;;;;;;;13.35;100.00;101020.13;5066424;28;20692;-64
2023/09/23 06:34:54;;;;;;;10.85;3.70;;;;;;;13.44;100.00;101016.19;5061953;28;20037;-64
2023/09/23 06:37:19;;;;;;;6.25;2.80;;;;;;;13.54;100.00;101021.97;5048763;28;20057;-63
2023/09/23 06:39:45;;;;;;;10.75;3.00;;;;;;;13.59;100.00;101027.06;5065467;28;20508;-64
2023/09/23 06:42:10;;;;;;;9.35;2.58;;;;;;;13.54;100.00;101027.28;5063171;28;20036;-65
2023/09/23 06:44:36;;;;;;;8.02;2.80;;;;;;;13.63;100.00;101031.31;5066003;28;20147;-64
2023/09/23 06:47:01;;;;;;;10.90;2.58;;;;;;;13.80;100.00;101037.66;5065888;28;20017;-63
2023/09/23 06:49:26;;;;;;;10.25;2.85;;;;;;;13.89;100.00;101046.06;5063301;28;20099;-65
2023/09/23 06:51:52;;;;;;;8.55;2.50;;;;;;;14.05;100.00;101044.53;5048091;28;20029;-64
2023/09/23 06:54:17;;;;;;;12.35;3.30;;;;;;;14.11;100.00;101047.72;5065283;28;20374;-65
2023/09/23 06:56:43;;;;;;;11.65;2.67;;;;;;;14.20;100.00;101048.22;5063535;28;20028;-64
2023/09/23 06:59:08;;;;;;;6.22;2.35;;;;;;;14.23;100.00;101050.75;5069666;28;20017;-63
2023/09/23 07:01:35;;;;;;;7.47;2.17;;;;;;;14.33;100.00;101044.06;5069167;28;20494;-64
2023/09/23 07:04:02;;;;;;;6.07;2.20;;;;;;;14.34;100.00;101053.78;5065767;28;20047;-64
2023/09/23 07:06:27;;;;;;;6.32;2.10;;;;;;;14.48;100.00;101050.47;5066434;28;20052;-64
2023/09/23 07:08:52;;;;;;;5.68;2.40;;;;;;;14.54;100.00;101057.25;5068240;28;20158;-64
2023/09/23 07:11:18;;;;;;;6.35;2.20;;;;;;;14.76;100.00;101064.22;5049755;28;20108;-65
2023/09/23 07:13:44;;;;;;;5.53;2.10;;;;;;;14.83;100.00;101067.44;5058278;28;20021;-65
2023/09/23 07:16:14;;;;;;;4.05;1.83;;;;;;;14.84;100.00;101072.69;5069824;28;20057;-64
2023/09/23 07:18:39;;;;;;;8.43;1.98;;;;;;;14.70;100.00;101067.16;5069689;28;20446;-64
2023/09/23 07:21:05;;;;;;;10.85;2.30;;;;;;;14.76;100.00;101072.16;5050174;28;20070;-65
2023/09/23 07:23:30;;;;;;;7.65;2.42;;;;;;;14.77;100.00;101072.09;5051521;28;20390;-64
2023/09/23 07:25:55;;;;;;;6.13;2.50;;;;;;;14.62;100.00;101067.50;5068962;28;20044;-65
2023/09/23 07:28:21;;;;;;;7.15;2.75;;;;;;;14.71;100.00;101079.47;5066472;28;20082;-65
2023/09/23 07:30:46;;;;;;;8.90;2.63;;;;;;;14.82;100.00;101081.66;5069583;28;20017;-63
2023/09/23 07:33:11;;;;;;;9.27;2.83;;;;;;;14.84;100.00;101087.75;5068920;28;20124;-64
2023/09/23 07:35:37;;;;;;;5.63;2.40;;;;;;;14.93;100.00;101089.09;5066471;28;20028;-64
2023/09/23 07:38:02;;;;;;;12.85;2.33;;;;;;;14.98;100.00;101095.03;5069542;28;20032;-64
2023/09/23 07:40:29;;;;;;;5.38;2.33;;;;;;;14.99;100.00;101099.41;5064575;28;20043;-64
2023/09/23 07:42:55;;;;;;;4.55;2.15;;;;;;;14.99;100.00;101102.06;5070173;28;20017;-65
2023/09/23 07:45:20;;;;;;;11.23;2.47;;;;;;;15.01;100.00;101116.09;5050830;28;20043;-64
2023/09/23 07:47:45;;;;;;;6.15;2.25;;;;;;;14.99;100.00;101125.94;5065693;28;20108;-64
2023/09/23 07:50:11;;;;;;;7.43;2.10;;;;;;;15.00;100.00;101125.00;5070146;28;20032;-64
2023/09/23 07:52:37;;;;;;;10.45;1.92;;;;;;;14.94;100.00;101134.13;5067817;28;20029;-65
2023/09/23 07:55:02;;;;;;;9.55;2.17;;;;;;;15.02;100.00;101141.72;5061025;28;20028;-64
2023/09/23 07:57:28;;;;;;;5.63;1.83;;;;;;;15.07;100.00;101137.03;5069579;28;20024;-63
2023/09/23 07:59:53;;;;;;;5.20;2.33;;;;;;;15.03;100.00;101136.31;5068289;28;20135;-64
2023/09/23 08:02:19;;;;;;;8.23;2.00;;;;;;;15.05;100.00;101144.22;5065252;28;20082;-64
2023/09/23 08:04:44;;;;;;;8.90;2.22;;;;;;;15.07;100.00;101144.13;5068672;28;20047;-64
2023/09/23 08:07:11;;;;;;;6.53;1.60;;;;;;;15.03;100.00;101146.94;5068098;28;20024;-64
2023/09/23 08:09:36;;;;;;;6.53;1.70;;;;;;;15.14;100.00;101154.38;5067499;28;20656;-64
2023/09/23 08:12:02;;;;;;;9.82;2.15;;;;;;;15.22;100.00;101158.47;5065581;28;20108;-64
2023/09/23 08:14:27;;;;;;;10.93;2.20;;;;;;;15.29;100.00;101154.56;5068807;28;20028;-64
2023/09/23 08:16:52;;;;;;;5.45;1.92;;;;;;;15.43;100.00;101166.31;5050103;28;20568;-65
2023/09/23 08:19:18;;;;;;;7.00;1.85;;;;;;;15.53;100.00;101170.22;5065245;28;20033;-64
2023/09/23 08:21:43;;;;;;;10.18;2.22;;;;;;;15.54;100.00;101175.47;5065367;28;20047;-65
2023/09/23 08:24:08;;;;;;;6.55;2.17;;;;;;;15.78;100.00;101184.97;5067366;28;20039;-64
2023/09/23 08:26:34;;;;;;;5.38;2.30;;;;;;;15.99;100.00;101188.34;5068136;28;20473;-65
2023/09/23 08:28:59;;;;;;;4.35;1.70;;;;;;;16.25;100.00;101194.09;5065013;28;20032;-63
2023/09/23 08:31:24;;;;;;;12.00;2.30;;;;;;;16.41;100.00;101196.81;5050645;28;20070;-64
2023/09/23 08:33:50;;;;;;;6.80;1.95;;;;;;;16.67;100.00;101209.66;5047022;28;20108;-66
2023/09/23 08:36:15;;;;;;;4.53;2.03;;;;;;;16.83;100.00;101204.38;5062092;28;20107;-65
2023/09/23 08:38:41;;;;;;;5.63;1.75;;;;;;;16.93;100.00;101207.38;5067569;28;20031;-65
2023/09/23 08:41:07;;;;;;;7.65;1.60;;;;;;;17.05;100.00;101209.38;5066173;28;20111;-65
2023/09/23 08:43:38;;;;;;;3.60;1.40;;;;;;;17.07;100.00;101217.31;5062194;28;20133;-65
2023/09/23 08:46:09;;;;;;;4.45;1.60;;;;;;;17.14;100.00;101218.69;5067092;28;20086;-66
2023/09/23 08:48:35;;;;;;;4.68;1.90;;;;;;;17.20;100.00;101216.59;5064487;28;20017;-66
2023/09/23 08:51:02;;;;;;;4.32;1.58;;;;;;;17.15;100.00;101219.53;5051337;28;20036;-65
2023/09/23 08:53:31;;;;;;;2.92;1.13;;;;;;;17.14;100.00;101229.34;5054624;28;20032;-64
2023/09/23 08:55:56;;;;;;;4.13;1.50;;;;;;;17.17;100.00;101230.97;5051087;28;20434;-66
2023/09/23 08:58:21;;;;;;;4.88;1.45;;;;;;;17.20;100.00;101235.25;5064639;28;20106;-67
2023/09/23 09:00:47;;;;;;;6.05;1.10;;;;;;;17.14;100.00;101244.44;5047555;28;20071;-66
2023/09/23 09:03:13;;;;;;;2.50;1.27;;;;;;;16.95;100.00;101244.56;5048023;28;20025;-67
2023/09/23 09:05:39;;;;;;;3.22;1.23;;;;;;;16.93;100.00;101241.97;5063608;28;20410;-66
2023/09/23 09:08:06;;;;;;;3.92;1.20;;;;;;;16.97;100.00;101253.31;5065838;28;20017;-66
2023/09/23 09:10:31;;;;;;;4.13;1.23;;;;;;;16.86;100.00;101262.72;5047022;28;20499;-66
2023/09/23 09:12:57;;;;;;;7.63;1.58;;;;;;;16.79;100.00;101259.56;5067082;28;20090;-64
2023/09/23 09:15:23;;;;;;;2.53;1.30;;;;;;;16.85;100.00;101260.16;5064551;28;20490;-64
2023/09/23 09:17:48;;;;;;;6.03;1.20;;;;;;;16.70;100.00;101262.69;5065518;28;20466;-66
2023/09/23 09:20:14;;;;;;;6.25;1.40;;;;;;;16.61;100.00;101274.69;5067009;28;20036;-65
2023/09/23 09:22:39;;;;;;;6.03;1.23;;;;;;;16.53;100.00;101287.53;5059964;28;20027;-65
2023/09/23 09:25:10;;;;;;;9.70;1.30;;;;;;;16.51;100.00;101286.75;5066299;28;20025;-67
2023/09/23 09:27:35;;;;;;;6.07;1.27;;;;;;;16.53;100.00;101319.47;5065062;28;20032;-65
2023/09/23 09:30:01;;;;;;;4.32;1.08;;;;;;;16.43;100.00;101305.75;5064928;28;20029;-65
2023/09/23 09:32:30;;;;;;;3.47;0.70;;;;;;;16.41;100.00;101316.47;5067366;28;20025;-65
2023/09/23 09:34:59;;;;;;;4.15;0.80;;;;;;;16.33;100.00;101313.38;5047266;28;20036;-66
2023/09/23 09:37:27;;;;;;;1.20;0.75;;;;;;;16.40;100.00;101320.09;5067269;28;20516;-64
2023/09/23 09:39:56;;;;;;;5.22;0.82;;;;;;;16.57;100.00;101315.69;5040806;28;20042;-67
2023/09/23 09:42:30;;;;;;;1.40;0.50;;;;;;;16.70;100.00;101320.41;5067412;28;20499;-67
2023/09/23 09:44:56;;;;;;;2.50;0.70;;;;;;;16.72;100.00;101318.50;5066972;28;20103;-67
2023/09/23 09:47:22;;;;;;;2.78;0.90;;;;;;;16.59;100.00;101328.94;5055119;28;20068;-67
2023/09/23 09:49:54;;;;;;;4.35;0.80;;;;;;;16.57;100.00;101328.13;5047648;28;20049;-67
2023/09/23 09:52:24;;;;;;;5.57;1.00;;;;;;;16.51;100.00;101321.34;5046321;28;20055;-66
2023/09/23 09:54:57;;;;;;;0.80;0.80;;;;;;;16.60;100.00;101333.28;5046476;28;20033;-67
2023/09/23 09:57:23;;;;;;;1.70;0.80;;;;;;;16.75;100.00;101324.53;5046099;28;20021;-65
2023/09/23 09:59:51;;;;;;;1.85;0.80;;;;;;;16.68;100.00;101336.44;5046685;28;20044;-66
2023/09/23 10:02:17;;;;;;;3.50;0.85;;;;;;;16.82;100.00;101333.03;5062462;28;20047;-67
2023/09/23 10:04:46;;;;;;;2.60;0.98;;;;;;;16.83;100.00;101337.44;5066933;28;20040;-69
2023/09/23 10:07:11;;;;;;;3.92;1.27;;;;;;;16.89;100.00;101336.25;5063560;28;20587;-66
2023/09/23 10:09:38;;;;;;;1.77;0.80;;;;;;;17.03;100.00;101343.47;5050139;28;20025;-67
2023/09/23 10:12:06;;;;;;;4.07;1.08;;;;;;;17.15;100.00;101337.53;5047135;28;20033;-67
2023/09/23 10:14:32;;;;;;;3.57;1.20;;;;;;;17.43;100.00;101340.50;5034735;28;20029;-66
2023/09/23 10:16:59;;;;;;;3.88;0.98;;;;;;;17.41;100.00;101343.25;5048951;28;20601;-67
2023/09/23 10:19:31;;;;;;;3.13;1.10;;;;;;;17.58;100.00;101340.59;5065904;28;20103;-66
2023/09/23 10:22:20;;;;;;;3.78;1.20;;;;;;;17.65;100.00;101357.97;5057224;28;20043;-67
2023/09/23 10:24:46;;;;;;;4.57;1.17;;;;;;;17.61;100.00;101351.94;5066406;28;20034;-68
2023/09/23 10:27:13;;;;;;;2.95;1.38;;;;;;;17.74;100.00;101351.25;5066579;28;20024;-68
2023/09/23 10:29:48;;;;;;;4.47;1.30;;;;;;;17.63;100.00;101366.03;5056829;28;20029;-67
2023/09/23 10:32:14;;;;;;;5.40;1.30;;;;;;;17.52;100.00;101369.28;5047153;28;20421;-66
2023/09/23 10:34:49;;;;;;;5.38;1.50;;;;;;;17.42;100.00;101371.59;5048127;28;20055;-66
2023/09/23 10:37:34;;;;;;;6.80;1.80;;;;;;;17.25;100.00;101375.16;5027371;28;20032;-67
2023/09/23 10:40:08;;;;;;;6.55;1.67;;;;;;;17.27;100.00;101377.75;5025398;28;20022;-67
2023/09/23 10:42:34;;;;;;;6.43;1.35;;;;;;;17.25;100.00;101379.66;5051806;28;20043;-66
2023/09/23 10:44:59;;;;;;;7.80;1.55;;;;;;;17.14;100.00;101388.22;5065743;28;20402;-70
2023/09/23 10:47:25;;;;;;;5.65;1.00;;;;;;;17.28;100.00;101391.00;5065275;28;20591;-69
2023/09/23 10:49:50;;;;;;;7.35;1.50;;;;;;;17.17;100.00;101399.56;5061856;28;20111;-67
2023/09/23 10:52:16;;;;;;;13.63;1.20;;;;;;;17.27;100.00;101399.06;5048860;28;20024;-67
2023/09/23 10:54:41;;;;;;;4.90;1.00;;;;;;;17.45;100.00;101399.03;5066151;28;20082;-69
2023/09/23 10:57:07;;;;;;;5.28;0.80;;;;;;;17.62;100.00;101398.09;5050125;28;20052;-68
2023/09/23 10:59:33;;;;;;;2.90;0.88;;;;;;;17.79;100.00;101398.00;5045168;28;20126;-70
2023/09/23 11:01:58;;;;;;;4.22;1.00;;;;;;;17.98;100.00;101398.78;5052730;28;20402;-69
2023/09/23 11:04:24;;;;;;;3.70;0.90;;;;;;;18.19;100.00;101407.41;5066370;28;20044;-67
2023/09/23 11:06:50;;;;;;;5.03;1.17;;;;;;;18.33;100.00;101416.44;5064480;28;20467;-66
2023/09/23 11:09:15;;;;;;;2.92;0.90;;;;;;;18.26;100.00;101407.91;5045582;28;20423;-66